createdAt,value
2022-12-20T00:00:44.503Z,9.667978
2022-12-20T00:01:44.609Z,9.667844
2022-12-20T00:02:44.518Z,9.667956
2022-12-20T00:03:44.549Z,9.667991
2022-12-20T00:05:16.396Z,9.667886
2022-12-20T00:05:44.470Z,9.667995
2022-12-20T00:06:45.453Z,9.667998
2022-12-20T00:07:44.468Z,9.667992
2022-12-20T00:08:44.472Z,9.667966
2022-12-20T00:09:44.441Z,9.668012
2022-12-20T00:10:44.419Z,9.667928
2022-12-20T00:11:44.453Z,9.667934
2022-12-20T00:12:44.427Z,9.667913
2022-12-20T00:14:17.381Z,9.667927
2022-12-20T00:14:44.409Z,9.667964
2022-12-20T00:15:45.263Z,9.667951
2022-12-20T00:16:44.381Z,9.667977
2022-12-20T00:17:44.489Z,9.667948
2022-12-20T00:18:44.400Z,9.667906
2022-12-20T00:19:44.392Z,9.667943
2022-12-20T00:20:44.576Z,9.667953
2022-12-20T00:21:45.349Z,9.667948
2022-12-20T00:22:44.339Z,9.667943
2022-12-20T00:23:44.367Z,9.667995
2022-12-20T00:24:44.323Z,9.667935
2022-12-20T00:25:44.328Z,9.667953
2022-12-20T00:26:44.379Z,9.667897
2022-12-20T00:27:44.308Z,9.667933
2022-12-20T00:28:44.308Z,9.667913
2022-12-20T00:29:44.329Z,9.667898
2022-12-20T00:30:44.295Z,9.667908
2022-12-20T00:31:44.340Z,9.667929
2022-12-20T00:32:44.277Z,9.667922
2022-12-20T00:33:44.287Z,9.667889
2022-12-20T00:34:44.253Z,9.667937
2022-12-20T00:35:44.267Z,9.667845
2022-12-20T00:36:44.237Z,9.667793
2022-12-20T00:38:16.128Z,9.667848
2022-12-20T00:38:44.215Z,9.667837
2022-12-20T00:39:44.249Z,9.667761
2022-12-20T00:40:44.222Z,9.667728
2022-12-20T00:41:44.829Z,9.667859
2022-12-20T00:42:44.218Z,9.667994
2022-12-20T00:43:44.177Z,9.667924
2022-12-20T00:44:44.177Z,9.667996
2022-12-20T00:45:44.150Z,9.667956
2022-12-20T00:46:45.242Z,9.667920
2022-12-20T00:47:44.184Z,9.667952
2022-12-20T00:48:44.142Z,9.667948
2022-12-20T00:49:44.126Z,9.667979
2022-12-20T00:50:44.197Z,9.667931
2022-12-20T00:51:44.174Z,9.667959
2022-12-20T00:52:44.112Z,9.667943
2022-12-20T00:53:44.147Z,9.667977
2022-12-20T00:54:44.086Z,9.667938
2022-12-20T00:55:44.119Z,9.667921
2022-12-20T00:56:44.117Z,9.667948
2022-12-20T00:57:44.117Z,9.667935
2022-12-20T00:58:44.087Z,9.667979
2022-12-20T00:59:44.039Z,9.668079
2022-12-20T01:00:44.076Z,9.668002
2022-12-20T01:01:46.008Z,9.668013
2022-12-20T01:02:44.207Z,9.668030
2022-12-20T01:03:44.049Z,9.667978
2022-12-20T01:04:44.015Z,9.667940
2022-12-20T01:05:44.007Z,9.667932
2022-12-20T01:06:44.031Z,9.667976
2022-12-20T01:07:43.981Z,9.667994
2022-12-20T01:08:45.288Z,9.668002
2022-12-20T01:09:43.990Z,9.667989
2022-12-20T01:10:43.965Z,9.668043
2022-12-20T01:11:44.819Z,9.668039
2022-12-20T01:12:43.940Z,9.668020
2022-12-20T01:13:44.003Z,9.667922
2022-12-20T01:14:43.962Z,9.667986
2022-12-20T01:15:43.920Z,9.667983
2022-12-20T01:16:44.009Z,9.667975
2022-12-20T01:17:44.800Z,9.667991
2022-12-20T01:18:43.906Z,9.668022
2022-12-20T01:19:43.907Z,9.668052
2022-12-20T01:20:43.920Z,9.668051
2022-12-20T01:21:43.877Z,9.668037
2022-12-20T01:22:47.609Z,9.668019
2022-12-20T01:23:44.843Z,9.668016
2022-12-20T01:24:43.895Z,9.668038
2022-12-20T01:25:43.829Z,9.668015
2022-12-20T01:26:44.915Z,9.668077
2022-12-20T01:27:43.832Z,9.668053
2022-12-20T01:28:43.822Z,9.668064
2022-12-20T01:29:44.668Z,9.668085
2022-12-20T01:30:43.817Z,9.668076
2022-12-20T01:31:44.917Z,9.668039
2022-12-20T01:32:44.800Z,9.668027
2022-12-20T01:33:43.797Z,9.668019
2022-12-20T01:34:43.881Z,9.668019
2022-12-20T01:35:44.315Z,9.668012
2022-12-20T01:36:44.692Z,9.668027
2022-12-20T01:37:43.764Z,9.667956
2022-12-20T01:38:43.732Z,9.668018
2022-12-20T01:39:43.751Z,9.667990
2022-12-20T01:40:43.757Z,9.668043
2022-12-20T01:41:43.754Z,9.668029
2022-12-20T01:42:43.746Z,9.668036
2022-12-20T01:43:45.639Z,9.668062
2022-12-20T01:44:43.751Z,9.668050
2022-12-20T01:45:43.784Z,9.668037
2022-12-20T01:46:43.757Z,9.668027
2022-12-20T01:47:43.668Z,9.668040
2022-12-20T01:48:44.676Z,9.667995
2022-12-20T01:49:45.003Z,9.667990
2022-12-20T01:50:44.296Z,9.667983
2022-12-20T01:51:43.667Z,9.667968
2022-12-20T01:52:43.624Z,9.667965
2022-12-20T01:53:43.618Z,9.667988
2022-12-20T01:54:43.614Z,9.667957
2022-12-20T01:55:43.625Z,9.667964
2022-12-20T01:56:43.595Z,9.668011
2022-12-20T01:57:43.611Z,9.667995
2022-12-20T01:58:43.621Z,9.667999
2022-12-20T01:59:43.583Z,9.668002
2022-12-20T02:00:43.608Z,9.668006
2022-12-20T02:01:44.308Z,9.667979
2022-12-20T02:02:43.689Z,9.667944
2022-12-20T02:03:43.652Z,9.667983
2022-12-20T02:04:43.551Z,9.667942
2022-12-20T02:05:43.527Z,9.668003
2022-12-20T02:06:44.058Z,9.667981
2022-12-20T02:07:44.308Z,9.668041
2022-12-20T02:08:43.540Z,9.668021
2022-12-20T02:09:43.524Z,9.668024
2022-12-20T02:10:43.553Z,9.668036
2022-12-20T02:11:43.507Z,9.668056
2022-12-20T02:12:43.495Z,9.668090
2022-12-20T02:13:43.623Z,9.668041
2022-12-20T02:14:43.473Z,9.668056
2022-12-20T02:15:43.460Z,9.668105
2022-12-20T02:16:43.513Z,9.668036
2022-12-20T02:17:44.145Z,9.668027
2022-12-20T02:18:43.494Z,9.668072
2022-12-20T02:19:43.452Z,9.668118
2022-12-20T02:20:43.409Z,9.668070
2022-12-20T02:21:44.223Z,9.668037
2022-12-20T02:22:43.386Z,9.668032
2022-12-20T02:23:43.376Z,9.668067
2022-12-20T02:24:44.822Z,9.668116
2022-12-20T02:25:43.386Z,9.668097
2022-12-20T02:26:43.387Z,9.668040
2022-12-20T02:27:43.370Z,9.668056
2022-12-20T02:28:44.293Z,9.668002
2022-12-20T02:29:43.379Z,9.667919
2022-12-20T02:30:43.330Z,9.668006
2022-12-20T02:31:43.413Z,9.668112
2022-12-20T02:32:43.372Z,9.668112
2022-12-20T02:33:43.329Z,9.668122
2022-12-20T02:34:43.330Z,9.668049
2022-12-20T02:35:43.368Z,9.668045
2022-12-20T02:36:43.290Z,9.668036
2022-12-20T02:37:43.293Z,9.667978
2022-12-20T02:38:43.284Z,9.668000
2022-12-20T02:39:43.277Z,9.667966
2022-12-20T02:40:43.253Z,9.667935
2022-12-20T02:41:43.283Z,9.667924
2022-12-20T02:42:43.276Z,9.667963
2022-12-20T02:43:43.268Z,9.668013
2022-12-20T02:44:43.250Z,9.667972
2022-12-20T02:45:43.265Z,9.667948
2022-12-20T02:46:43.256Z,9.667978
2022-12-20T02:47:43.186Z,9.668020
2022-12-20T02:48:43.195Z,9.667953
2022-12-20T02:49:43.208Z,9.667922
2022-12-20T02:50:44.655Z,9.667924
2022-12-20T02:51:44.156Z,9.667979
2022-12-20T02:52:43.164Z,9.667973
2022-12-20T02:53:43.273Z,9.667974
2022-12-20T02:54:43.160Z,9.667937
2022-12-20T02:55:43.169Z,9.667945
2022-12-20T02:56:43.148Z,9.667961
2022-12-20T02:57:43.145Z,9.667964
2022-12-20T02:58:43.134Z,9.667961
2022-12-20T02:59:43.108Z,9.667963
2022-12-20T03:00:43.647Z,9.667945
2022-12-20T03:01:43.173Z,9.667961
2022-12-20T03:02:43.279Z,9.667953
2022-12-20T03:03:43.786Z,9.667969
2022-12-20T03:04:43.057Z,9.667979
2022-12-20T03:05:43.067Z,9.667955
2022-12-20T03:06:43.035Z,9.667947
2022-12-20T03:07:43.064Z,9.667974
2022-12-20T03:08:43.079Z,9.667966
2022-12-20T03:09:43.082Z,9.667958
2022-12-20T03:10:43.015Z,9.667973
2022-12-20T03:11:42.997Z,9.667964
2022-12-20T03:12:43.016Z,9.667990
2022-12-20T03:13:43.003Z,9.667993
2022-12-20T03:14:43.009Z,9.668010
2022-12-20T03:15:42.979Z,9.668021
2022-12-20T03:16:43.034Z,9.668003
2022-12-20T03:17:42.993Z,9.668102
2022-12-20T03:18:42.960Z,9.668081
2022-12-20T03:19:42.959Z,9.668028
2022-12-20T03:20:42.973Z,9.667972
2022-12-20T03:21:42.915Z,9.667997
2022-12-20T03:22:42.937Z,9.667937
2022-12-20T03:23:42.922Z,9.667887
2022-12-20T03:24:43.804Z,9.667908
2022-12-20T03:25:42.911Z,9.667979
2022-12-20T03:26:42.950Z,9.668021
2022-12-20T03:27:42.888Z,9.667961
2022-12-20T03:28:43.725Z,9.667954
2022-12-20T03:29:42.896Z,9.668010
2022-12-20T03:30:42.912Z,9.667979
2022-12-20T03:31:43.723Z,9.667985
2022-12-20T03:32:44.425Z,9.667895
2022-12-20T03:33:42.954Z,9.667964
2022-12-20T03:34:42.947Z,9.667937
2022-12-20T03:35:42.818Z,9.667920
2022-12-20T03:36:43.825Z,9.668020
2022-12-20T03:37:42.835Z,9.667994
2022-12-20T03:38:42.827Z,9.668023
2022-12-20T03:39:42.786Z,9.667993
2022-12-20T03:40:43.323Z,9.667994
2022-12-20T03:41:42.838Z,9.667999
2022-12-20T03:42:42.773Z,9.667917
2022-12-20T03:43:42.786Z,9.667945
2022-12-20T03:44:42.767Z,9.667963
2022-12-20T03:45:43.729Z,9.667955
2022-12-20T03:46:42.841Z,9.667928
2022-12-20T04:07:51.861Z,9.668003
2022-12-20T04:08:51.880Z,9.668007
2022-12-20T04:09:51.853Z,9.668034
2022-12-20T04:10:51.855Z,9.667924
2022-12-20T04:11:51.836Z,9.667880
2022-12-20T04:12:51.835Z,9.667919
2022-12-20T04:13:51.831Z,9.667851
2022-12-20T04:14:51.808Z,9.667914
2022-12-20T04:15:56.669Z,9.667787
2022-12-20T04:16:53.828Z,9.667723
2022-12-20T04:17:51.810Z,9.667649
2022-12-20T04:18:51.782Z,9.667724
2022-12-20T04:19:51.791Z,9.667716
2022-12-20T04:20:51.768Z,9.667720
2022-12-20T04:21:51.783Z,9.667653
2022-12-20T04:22:51.769Z,9.667651
2022-12-20T04:23:51.772Z,9.667660
2022-12-20T04:24:51.741Z,9.667798
2022-12-20T04:25:51.751Z,9.668002
2022-12-20T04:26:51.740Z,9.668017
2022-12-20T04:27:51.732Z,9.668003
2022-12-20T04:28:51.744Z,9.668086
2022-12-20T04:29:51.735Z,9.667967
2022-12-20T04:30:51.753Z,9.667811
2022-12-20T04:31:51.813Z,9.667873
2022-12-20T04:32:51.687Z,9.668020
2022-12-20T04:33:51.669Z,9.667936
2022-12-20T04:34:51.656Z,9.667930
2022-12-20T04:35:51.745Z,9.668015
2022-12-20T04:36:51.911Z,9.668036
2022-12-20T04:37:51.681Z,9.667909
2022-12-20T04:38:51.626Z,9.668048
2022-12-20T04:39:51.616Z,9.668038
2022-12-20T04:40:51.612Z,9.667953
2022-12-20T04:41:51.602Z,9.667850
2022-12-20T04:42:51.602Z,9.667864
2022-12-20T04:43:51.587Z,9.668081
2022-12-20T04:44:51.635Z,9.668035
2022-12-20T04:45:51.590Z,9.668079
2022-12-20T04:46:51.614Z,9.668010
2022-12-20T04:47:51.560Z,9.667963
2022-12-20T04:48:59.839Z,9.667981
2022-12-20T04:49:53.558Z,9.667960
2022-12-20T04:50:51.541Z,9.667990
2022-12-20T04:51:51.515Z,9.667958
2022-12-20T04:52:51.515Z,9.668094
2022-12-20T04:53:51.534Z,9.667989
2022-12-20T04:54:51.517Z,9.668042
2022-12-20T04:55:51.520Z,9.668057
2022-12-20T04:56:51.488Z,9.668026
2022-12-20T04:57:51.486Z,9.668029
2022-12-20T04:58:51.508Z,9.668027
2022-12-20T04:59:51.476Z,9.668033
2022-12-20T05:00:51.499Z,9.668049
2022-12-20T05:01:51.549Z,9.668075
2022-12-20T05:02:51.891Z,9.668018
2022-12-20T05:03:51.584Z,9.668088
2022-12-20T05:04:51.417Z,9.668022
2022-12-20T05:05:51.404Z,9.668047
2022-12-20T05:06:51.409Z,9.668025
2022-12-20T05:07:51.428Z,9.668023
2022-12-20T05:08:51.425Z,9.667974
2022-12-20T05:09:51.401Z,9.668123
2022-12-20T05:10:51.396Z,9.668069
2022-12-20T05:11:52.321Z,9.668043
2022-12-20T05:12:51.366Z,9.668025
2022-12-20T05:13:51.389Z,9.668036
2022-12-20T05:14:51.374Z,9.668046
2022-12-20T05:15:51.403Z,9.668024
2022-12-20T05:16:51.340Z,9.668041
2022-12-20T05:17:52.841Z,9.668064
2022-12-20T05:18:51.326Z,9.668098
2022-12-20T05:19:51.353Z,9.668063
2022-12-20T05:20:51.335Z,9.668092
2022-12-20T05:21:51.408Z,9.668023
2022-12-20T05:22:51.327Z,9.668052
2022-12-20T05:23:51.286Z,9.667970
2022-12-20T05:24:51.277Z,9.668040
2022-12-20T05:25:51.262Z,9.668051
2022-12-20T05:26:51.338Z,9.668067
2022-12-20T05:27:51.255Z,9.668074
2022-12-20T05:28:51.252Z,9.668060
2022-12-20T05:29:51.244Z,9.668102
2022-12-20T05:30:51.397Z,9.668110
2022-12-20T05:31:51.299Z,9.668077
2022-12-20T05:32:51.197Z,9.668019
2022-12-20T05:33:51.247Z,9.668058
2022-12-20T05:34:51.250Z,9.668009
2022-12-20T05:35:52.001Z,9.668020
2022-12-20T05:36:51.267Z,9.668037
2022-12-20T05:37:51.209Z,9.668068
2022-12-20T05:38:51.176Z,9.667964
2022-12-20T05:39:51.184Z,9.668002
2022-12-20T05:40:51.208Z,9.668052
2022-12-20T05:41:51.168Z,9.668057
2022-12-20T05:42:51.135Z,9.668038
2022-12-20T05:43:51.981Z,9.668057
2022-12-20T05:44:51.112Z,9.668042
2022-12-20T05:45:51.107Z,9.668019
2022-12-20T05:46:51.200Z,9.668055
2022-12-20T05:47:51.103Z,9.668034
2022-12-20T05:48:51.143Z,9.668000
2022-12-20T05:49:51.105Z,9.668049
2022-12-20T05:50:51.094Z,9.668035
2022-12-20T05:51:51.154Z,9.668037
2022-12-20T05:52:51.092Z,9.668034
2022-12-20T05:53:51.066Z,9.668024
2022-12-20T05:54:51.593Z,9.668000
2022-12-20T05:55:51.018Z,9.668037
2022-12-20T05:56:51.044Z,9.668038
2022-12-20T05:57:51.027Z,9.668034
2022-12-20T05:58:53.893Z,9.668005
2022-12-20T05:59:50.993Z,9.668018
2022-12-20T06:00:51.021Z,9.667989
2022-12-20T06:01:51.668Z,9.668074
2022-12-20T06:02:51.222Z,9.668024
2022-12-20T06:03:51.127Z,9.668022
2022-12-20T06:04:50.980Z,9.668024
2022-12-20T06:05:50.961Z,9.667998
2022-12-20T06:06:50.968Z,9.667956
2022-12-20T06:07:50.946Z,9.668026
2022-12-20T06:08:50.946Z,9.668015
2022-12-20T06:09:50.984Z,9.668010
2022-12-20T06:10:50.929Z,9.667974
2022-12-20T06:11:50.919Z,9.667995
2022-12-20T06:12:50.927Z,9.667984
2022-12-20T06:13:51.897Z,9.667966
2022-12-20T06:14:50.907Z,9.667997
2022-12-20T06:15:50.967Z,9.668021
2022-12-20T06:16:50.899Z,9.668003
2022-12-20T06:17:50.875Z,9.667991
2022-12-20T06:18:50.872Z,9.668009
2022-12-20T06:19:50.900Z,9.667912
2022-12-20T06:20:50.885Z,9.667969
2022-12-20T06:21:50.876Z,9.667978
2022-12-20T06:22:50.818Z,9.667976
2022-12-20T06:23:50.802Z,9.668051
2022-12-20T06:24:51.480Z,9.667938
2022-12-20T06:25:50.782Z,9.667941
2022-12-20T06:26:50.837Z,9.667930
2022-12-20T06:27:50.791Z,9.667970
2022-12-20T06:28:50.797Z,9.667944
2022-12-20T06:29:50.791Z,9.667949
2022-12-20T06:30:50.763Z,9.667971
2022-12-20T06:31:50.826Z,9.667991
2022-12-20T06:32:50.749Z,9.668022
2022-12-20T06:33:50.730Z,9.667994
2022-12-20T06:34:50.735Z,9.668085
2022-12-20T06:35:50.746Z,9.668083
2022-12-20T06:36:50.739Z,9.668027
2022-12-20T06:38:22.644Z,9.668021
2022-12-20T06:38:50.663Z,9.667997
2022-12-20T06:39:51.721Z,9.667897
2022-12-20T06:40:50.809Z,9.667996
2022-12-20T06:41:50.711Z,9.668032
2022-12-20T06:42:50.707Z,9.668036
2022-12-20T06:43:50.680Z,9.668068
2022-12-20T06:44:50.715Z,9.668066
2022-12-20T06:45:50.659Z,9.668065
2022-12-20T06:46:51.639Z,9.668073
2022-12-20T06:47:50.656Z,9.668063
2022-12-20T06:48:50.636Z,9.668032
2022-12-20T06:49:50.606Z,9.668050
2022-12-20T06:50:55.608Z,9.668077
2022-12-20T06:51:52.632Z,9.668044
2022-12-20T06:52:50.602Z,9.668049
2022-12-20T06:53:50.601Z,9.667992
2022-12-20T06:54:50.596Z,9.668006
2022-12-20T06:55:50.591Z,9.668148
2022-12-20T06:56:50.561Z,9.668180
2022-12-20T06:57:50.560Z,9.668115
2022-12-20T06:58:50.595Z,9.668118
2022-12-20T06:59:50.596Z,9.668093
2022-12-20T07:00:50.623Z,9.668118
2022-12-20T07:01:50.608Z,9.668074
2022-12-20T07:02:50.655Z,9.668065
2022-12-20T07:03:50.654Z,9.668017
2022-12-20T07:04:50.487Z,9.668048
2022-12-20T07:05:50.519Z,9.668070
2022-12-20T07:06:50.479Z,9.668087
2022-12-20T07:07:50.503Z,9.668116
2022-12-20T07:08:50.509Z,9.668068
2022-12-20T07:09:50.443Z,9.667978
2022-12-20T07:10:50.449Z,9.668065
2022-12-20T07:11:50.491Z,9.668041
2022-12-20T07:12:50.437Z,9.668103
2022-12-20T07:13:50.421Z,9.668086
2022-12-20T07:14:50.455Z,9.668100
2022-12-20T07:15:50.469Z,9.668097
2022-12-20T07:16:50.536Z,9.668155
2022-12-20T07:17:50.412Z,9.668117
2022-12-20T07:18:50.424Z,9.668052
2022-12-20T07:19:51.126Z,9.668100
2022-12-20T07:20:51.396Z,9.668077
2022-12-20T07:21:50.368Z,9.668030
2022-12-20T07:22:50.451Z,9.668040
2022-12-20T07:23:50.390Z,9.668048
2022-12-20T07:24:50.356Z,9.668056
2022-12-20T07:25:50.382Z,9.668015
2022-12-20T07:26:50.332Z,9.668024
2022-12-20T07:27:50.385Z,9.668065
2022-12-20T07:28:50.377Z,9.668068
2022-12-20T07:29:50.310Z,9.668057
2022-12-20T07:30:50.354Z,9.668056
2022-12-20T07:31:50.381Z,9.668051
2022-12-20T07:32:50.306Z,9.667984
2022-12-20T07:33:50.260Z,9.668005
2022-12-20T07:34:50.278Z,9.668075
2022-12-20T07:35:54.382Z,9.668042
2022-12-20T07:36:51.263Z,9.668036
2022-12-20T07:37:50.272Z,9.668051
2022-12-20T07:38:50.269Z,9.668056
2022-12-20T07:39:50.230Z,9.667998
2022-12-20T07:40:51.080Z,9.668034
2022-12-20T07:41:50.235Z,9.668069
2022-12-20T07:42:50.283Z,9.668042
2022-12-20T07:43:50.228Z,9.668025
2022-12-20T07:44:50.182Z,9.668056
2022-12-20T07:45:50.255Z,9.668036
2022-12-20T07:46:50.185Z,9.667997
2022-12-20T07:47:50.213Z,9.668040
2022-12-20T07:48:50.182Z,9.668065
2022-12-20T07:49:50.193Z,9.668036
2022-12-20T07:50:50.150Z,9.667985
2022-12-20T07:51:50.120Z,9.667992
2022-12-20T07:52:51.174Z,9.667991
2022-12-20T07:53:50.144Z,9.668028
2022-12-20T07:54:50.947Z,9.667974
2022-12-20T07:55:50.098Z,9.668003
2022-12-20T07:56:50.102Z,9.668008
2022-12-20T07:57:50.117Z,9.667995
2022-12-20T07:58:50.101Z,9.667949
2022-12-20T07:59:50.133Z,9.667990
2022-12-20T08:00:50.259Z,9.668027
2022-12-20T08:01:50.207Z,9.667989
2022-12-20T08:02:50.273Z,9.667994
2022-12-20T08:03:50.116Z,9.668007
2022-12-20T08:04:50.109Z,9.668006
2022-12-20T08:05:50.055Z,9.667974
2022-12-20T08:06:50.047Z,9.667987
2022-12-20T08:07:55.068Z,9.668014
2022-12-20T08:08:52.021Z,9.667988
2022-12-20T08:09:50.074Z,9.668002
2022-12-20T08:10:50.046Z,9.668006
2022-12-20T08:11:50.008Z,9.668000
2022-12-20T08:12:49.972Z,9.668043
2022-12-20T08:13:54.163Z,9.667960
2022-12-20T08:14:51.958Z,9.668026
2022-12-20T08:15:49.969Z,9.668045
2022-12-20T08:16:49.981Z,9.668013
2022-12-20T08:18:21.846Z,9.668008
2022-12-20T08:18:49.931Z,9.668019
2022-12-20T08:19:49.948Z,9.668012
2022-12-20T08:20:49.932Z,9.667997
2022-12-20T08:21:49.944Z,9.667980
2022-12-20T08:22:49.931Z,9.667981
2022-12-20T08:23:49.890Z,9.668005
2022-12-20T08:24:49.874Z,9.667986
2022-12-20T08:25:49.944Z,9.667937
2022-12-20T08:26:49.907Z,9.667947
2022-12-20T08:27:49.863Z,9.667936
2022-12-20T08:28:49.865Z,9.667949
2022-12-20T08:29:49.874Z,9.667953
2022-12-20T08:30:49.951Z,9.667952
2022-12-20T08:31:50.781Z,9.667961
2022-12-20T08:32:50.908Z,9.667964
2022-12-20T08:33:49.964Z,9.667962
2022-12-20T08:34:49.815Z,9.667967
2022-12-20T08:35:49.804Z,9.667978
2022-12-20T08:36:49.808Z,9.667970
2022-12-20T08:37:49.787Z,9.668033
2022-12-20T08:38:49.792Z,9.668019
2022-12-20T08:39:49.771Z,9.667969
2022-12-20T08:40:49.779Z,9.668008
2022-12-20T08:41:49.763Z,9.667974
2022-12-20T08:42:49.982Z,9.667972
2022-12-20T08:43:49.777Z,9.667992
2022-12-20T08:44:49.831Z,9.667963
2022-12-20T08:45:49.796Z,9.668015
2022-12-20T08:46:49.741Z,9.667952
2022-12-20T08:47:49.897Z,9.667997
2022-12-20T08:48:50.799Z,9.668007
2022-12-20T08:49:49.713Z,9.668004
2022-12-20T08:50:49.743Z,9.667993
2022-12-20T08:51:49.721Z,9.667935
2022-12-20T08:52:49.684Z,9.667985
2022-12-20T08:53:49.676Z,9.667971
2022-12-20T08:54:49.678Z,9.668001
2022-12-20T08:55:49.656Z,9.667982
2022-12-20T08:56:49.642Z,9.667983
2022-12-20T08:57:49.644Z,9.668006
2022-12-20T08:58:49.628Z,9.667974
2022-12-20T08:59:49.666Z,9.667927
2022-12-20T09:00:49.599Z,9.668056
2022-12-20T09:01:49.697Z,9.668051
2022-12-20T09:02:49.745Z,9.667975
2022-12-20T09:03:49.663Z,9.667925
2022-12-20T09:04:49.556Z,9.667965
2022-12-20T09:05:49.571Z,9.668006
2022-12-20T09:06:49.545Z,9.668013
2022-12-20T09:07:49.532Z,9.667949
2022-12-20T09:08:49.593Z,9.667997
2022-12-20T09:09:49.541Z,9.668027
2022-12-20T09:10:49.599Z,9.667990
2022-12-20T09:11:49.529Z,9.667986
2022-12-20T09:12:49.515Z,9.668041
2022-12-20T09:13:49.499Z,9.668077
2022-12-20T09:14:49.505Z,9.668089
2022-12-20T09:15:49.559Z,9.668077
2022-12-20T09:16:49.511Z,9.667982
2022-12-20T09:17:49.507Z,9.668055
2022-12-20T09:18:49.485Z,9.668030
2022-12-20T09:19:49.501Z,9.667968
2022-12-20T09:20:49.443Z,9.667990
2022-12-20T09:21:49.459Z,9.668096
2022-12-20T09:22:49.428Z,9.668085
2022-12-20T09:23:49.446Z,9.668062
2022-12-20T09:24:49.421Z,9.668019
2022-12-20T09:25:53.706Z,9.668016
2022-12-20T09:27:21.357Z,9.668039
2022-12-20T09:27:49.447Z,9.668013
2022-12-20T09:29:28.318Z,9.668030
2022-12-20T09:29:50.406Z,9.668022
2022-12-20T09:30:49.472Z,9.668002
2022-12-20T09:31:49.356Z,9.668024
2022-12-20T09:32:49.362Z,9.668052
2022-12-20T09:33:49.428Z,9.668060
2022-12-20T09:34:49.341Z,9.668060
2022-12-20T09:35:49.383Z,9.668055
2022-12-20T09:36:49.355Z,9.668054
2022-12-20T09:37:49.336Z,9.668037
2022-12-20T09:38:49.343Z,9.667968
2022-12-20T09:39:49.342Z,9.668036
2022-12-20T09:40:49.303Z,9.668030
2022-12-20T09:41:49.294Z,9.667981
2022-12-20T09:42:49.306Z,9.668022
2022-12-20T09:43:49.258Z,9.668006
2022-12-20T09:59:50.005Z,9.668000
2022-12-20T10:00:53.985Z,9.667999
2022-12-20T10:01:50.501Z,9.668010
2022-12-20T10:03:09.898Z,9.667905
2022-12-20T10:03:50.722Z,9.667933
2022-12-20T10:04:48.564Z,9.668074
2022-12-20T10:06:20.324Z,9.667963
2022-12-20T10:06:48.399Z,9.667999
2022-12-20T10:07:48.355Z,9.667893
2022-12-20T10:08:48.359Z,9.667900
2022-12-20T10:09:48.398Z,9.667862
2022-12-20T10:10:48.421Z,9.667890
2022-12-20T10:11:50.768Z,9.667907
2022-12-20T10:12:49.328Z,9.667921
2022-12-20T10:13:48.334Z,9.667907
2022-12-20T10:14:48.409Z,9.667901
2022-12-20T10:15:48.391Z,9.667986
2022-12-20T10:16:48.283Z,9.667959
2022-12-20T10:17:48.298Z,9.667922
2022-12-20T10:18:48.275Z,9.667928
2022-12-20T10:19:48.300Z,9.667871
2022-12-20T10:20:48.291Z,9.667923
2022-12-20T10:21:48.277Z,9.667896
2022-12-20T10:22:48.319Z,9.667959
2022-12-20T10:23:48.251Z,9.667958
2022-12-20T10:24:48.245Z,9.667973
2022-12-20T10:25:48.290Z,9.667982
2022-12-20T10:26:48.307Z,9.668014
2022-12-20T10:27:48.260Z,9.668028
2022-12-20T10:28:53.800Z,9.668006
2022-12-20T10:29:50.199Z,9.667993
2022-12-20T10:30:48.230Z,9.667979
2022-12-20T10:31:48.222Z,9.667991
2022-12-20T10:32:48.224Z,9.668001
2022-12-20T10:33:48.174Z,9.667974
2022-12-20T10:34:48.754Z,9.667968
2022-12-20T10:35:49.166Z,9.667961
2022-12-20T10:36:48.152Z,9.667983
2022-12-20T10:38:06.492Z,9.667989
2022-12-20T10:38:50.154Z,9.667995
2022-12-20T10:39:48.153Z,9.667986
2022-12-20T10:41:50.142Z,9.668000
2022-12-20T10:42:48.136Z,9.667939
2022-12-20T10:43:48.107Z,9.667904
2022-12-20T10:44:48.081Z,9.667960
2022-12-20T10:45:48.070Z,9.667994
2022-12-20T10:46:48.118Z,9.667955
2022-12-20T10:47:48.095Z,9.667948
2022-12-20T10:48:48.097Z,9.667929
2022-12-20T10:49:48.065Z,9.667983
2022-12-20T10:50:48.118Z,9.667956
2022-12-20T10:51:48.096Z,9.667922
2022-12-20T10:52:48.054Z,9.667920
2022-12-20T10:53:48.063Z,9.667979
2022-12-20T10:54:48.033Z,9.667949
2022-12-20T10:55:47.990Z,9.667972
2022-12-20T10:56:48.035Z,9.667938
2022-12-20T10:57:48.000Z,9.667964
2022-12-20T10:58:47.994Z,9.667913
2022-12-20T10:59:48.059Z,9.667953
2022-12-20T11:00:47.968Z,9.667945
2022-12-20T11:01:48.050Z,9.667920
2022-12-20T11:02:48.065Z,9.667954
2022-12-20T11:03:48.005Z,9.667942
2022-12-20T11:04:47.971Z,9.667965
2022-12-20T11:05:48.044Z,9.667917
2022-12-20T11:06:47.930Z,9.667948
2022-12-20T11:08:08.544Z,9.667951
2022-12-20T11:08:53.993Z,9.667930
2022-12-20T11:09:49.907Z,9.667899
2022-12-20T11:10:47.912Z,9.667949
2022-12-20T11:11:47.928Z,9.667951
2022-12-20T11:12:47.861Z,9.667953
2022-12-20T11:13:47.951Z,9.667961
2022-12-20T11:14:47.866Z,9.667892
2022-12-20T11:15:48.564Z,9.667946
2022-12-20T11:16:47.951Z,9.667931
2022-12-20T11:17:47.848Z,9.667981
2022-12-20T11:18:47.811Z,9.668024
2022-12-20T11:19:47.876Z,9.667961
2022-12-20T11:20:49.598Z,9.667974
2022-12-20T11:21:47.808Z,9.667992
2022-12-20T11:22:47.824Z,9.668004
2022-12-20T11:23:47.874Z,9.667959
2022-12-20T11:24:47.808Z,9.667969
2022-12-20T11:25:47.826Z,9.667946
2022-12-20T11:26:47.775Z,9.667982
2022-12-20T11:28:19.644Z,9.668027
2022-12-20T11:28:47.741Z,9.668028
2022-12-20T11:29:47.777Z,9.667994
2022-12-20T11:30:47.729Z,9.668014
2022-12-20T11:31:47.774Z,9.667992
2022-12-20T11:32:48.993Z,9.667987
2022-12-20T11:33:48.701Z,9.668026
2022-12-20T11:34:47.707Z,9.667976
2022-12-20T11:35:47.749Z,9.667951
2022-12-20T11:36:47.705Z,9.667967
2022-12-20T11:37:47.697Z,9.667975
2022-12-20T11:38:47.674Z,9.667960
2022-12-20T11:39:47.683Z,9.668014
2022-12-20T11:40:47.657Z,9.667989
2022-12-20T11:41:47.645Z,9.667973
2022-12-20T11:42:47.634Z,9.667975
2022-12-20T11:44:15.848Z,9.667969
2022-12-20T11:44:57.976Z,9.667992
2022-12-20T11:45:49.631Z,9.667968
2022-12-20T11:46:47.694Z,9.667992
2022-12-20T11:47:47.614Z,9.667972
2022-12-20T11:48:47.631Z,9.667953
2022-12-20T11:49:47.608Z,9.667947
2022-12-20T11:50:47.566Z,9.667948
2022-12-20T11:51:47.557Z,9.667997
2022-12-20T11:52:47.591Z,9.668009
2022-12-20T11:53:47.566Z,9.667933
2022-12-20T11:54:47.554Z,9.668000
2022-12-20T11:56:19.529Z,9.668018
2022-12-20T11:56:47.524Z,9.667930
2022-12-20T11:58:08.950Z,9.667947
2022-12-20T11:58:49.595Z,9.667918
2022-12-20T11:59:47.491Z,9.667941
2022-12-20T12:00:47.563Z,9.668017
2022-12-20T12:01:47.667Z,9.667951
2022-12-20T12:02:51.653Z,9.667844
2022-12-20T12:03:48.501Z,9.667883
2022-12-20T12:04:47.497Z,9.667808
2022-12-20T12:05:47.572Z,9.667828
2022-12-20T12:06:47.547Z,9.667887
2022-12-20T12:07:47.470Z,9.667942
2022-12-20T12:08:47.446Z,9.667946
2022-12-20T12:09:48.443Z,9.667975
2022-12-20T12:10:47.500Z,9.667928
2022-12-20T12:12:16.421Z,9.667911
2022-12-20T12:12:49.400Z,9.667983
2022-12-20T12:13:47.433Z,9.668026
2022-12-20T12:14:47.412Z,9.667944
2022-12-20T12:15:47.378Z,9.667961
2022-12-20T12:16:47.485Z,9.667860
2022-12-20T12:17:47.394Z,9.667917
2022-12-20T12:18:47.365Z,9.667946
2022-12-20T12:19:47.388Z,9.667910
2022-12-20T12:20:47.338Z,9.667895